Eagle Turin — 9VMG6 — position and weather

sailwx.info

Track history (hours):
 
Tides and Currents Weather Stations Pressure Air Temp Water Temp Dewpoint Dewpoint Depression Visibility Wind Speed Wind Dir Waves Ship Positions

Eagle Turin

Last reported at 2015-Jan-31 11:32 UTC. Time now 2015-Feb-01 04:07 UTC.
Position N 26°36' W 079°26'.

Length 246 m; draft 12.3 m.

Type: Tanker. MMSI: 565770000.

Date/timePositionNaut miles runAvg speedWind from/ knotsBaromVisibWave heightAir tempDewpointWater temp
2015-Jan-31 11:32N 26°36' W 079°26'1613.0
2015-Jan-31 10:18N 26°20' W 079°27'1013.2
2015-Jan-31 09:33N 26°10' W 079°29'1313.5
2015-Jan-31 08:33N 25°57' W 079°30'1413.7
2015-Jan-31 07:34N 25°43' W 079°32'  
2015-Jan-27 17:33N 29°27' W 094°51'8 8.2
2015-Jan-27 16:33N 29°34' W 094°55'8 7.8
2015-Jan-27 15:33N 29°41' W 094°59'6 6.0
2015-Jan-27 14:33N 29°45' W 095°04'3 3.2
2015-Jan-27 13:33N 29°44' W 095°08'0 0.0
2015-Jan-27 12:31N 29°44' W 095°08'0 0.0
2015-Jan-27 11:31N 29°44' W 095°08'0 0.0
2015-Jan-27 09:28N 29°44' W 095°08'0 0.0
2015-Jan-27 08:28N 29°44' W 095°08'0 0.0
2015-Jan-27 07:28N 29°44' W 095°08'0 0.0
2015-Jan-27 06:22N 29°44' W 095°08'0 0.0
2015-Jan-27 05:31N 29°44' W 095°08'0 0.0
2015-Jan-27 04:31N 29°44' W 095°08'0 0.0
2015-Jan-27 03:31N 29°44' W 095°08'0 0.0
2015-Jan-27 02:31N 29°44' W 095°08'0 0.0
2015-Jan-27 01:28N 29°44' W 095°08'0 0.0
2015-Jan-27 00:31N 29°44' W 095°08'0 0.0
2015-Jan-26 23:31N 29°44' W 095°08'0 0.0
2015-Jan-26 22:31N 29°44' W 095°08'0 0.0
2015-Jan-26 21:31N 29°44' W 095°08'0 0.0
2015-Jan-26 20:31N 29°44' W 095°08'0 0.0
2015-Jan-26 19:31N 29°44' W 095°08'0 0.0
2015-Jan-26 18:31N 29°44' W 095°08'0 0.0
2015-Jan-26 17:31N 29°44' W 095°08'0 0.0
2015-Jan-26 16:31N 29°44' W 095°08'0 0.0
2015-Jan-26 15:31N 29°44' W 095°08'0 0.0
2015-Jan-26 14:28N 29°44' W 095°08'0 0.0
2015-Jan-26 13:28N 29°44' W 095°08'0 0.0
2015-Jan-25 23:22N 29°44' W 095°08'0 0.0
2015-Jan-25 22:25N 29°44' W 095°08'0 0.0
2015-Jan-25 21:22N 29°44' W 095°08'0 0.0
2015-Jan-25 20:07N 29°44' W 095°08'0 0.0
2015-Jan-25 19:28N 29°44' W 095°08'0 0.0
2015-Jan-25 17:07N 29°44' W 095°08'0 0.0
2015-Jan-25 16:19N 29°44' W 095°08'0 0.0
2015-Jan-25 15:28N 29°44' W 095°08'0 0.0
2015-Jan-25 14:13N 29°44' W 095°08'0 0.0
2015-Jan-25 13:13N 29°44' W 095°08'0 0.0
2015-Jan-25 12:13N 29°44' W 095°08'0 0.0
2015-Jan-25 11:31N 29°44' W 095°08'0 0.0
2015-Jan-25 10:13N 29°44' W 095°08'0 0.0
2015-Jan-25 09:31N 29°44' W 095°08'0 0.0
2015-Jan-25 08:19N 29°44' W 095°08'0 0.0
2015-Jan-25 02:07N 29°44' W 095°08'0 0.0
2015-Jan-24 23:31N 29°44' W 095°08'0 0.0
2015-Jan-24 22:19N 29°44' W 095°08'0 0.0
2015-Jan-24 21:31N 29°44' W 095°08'0 0.0
2015-Jan-24 19:31N 29°44' W 095°08'0 0.0
2015-Jan-24 18:31N 29°44' W 095°08'0 0.0
2015-Jan-24 17:31N 29°44' W 095°08'0 0.0
2015-Jan-24 16:31N 29°44' W 095°08'0 0.0
2015-Jan-24 15:31N 29°44' W 095°08'0 0.0
2015-Jan-24 14:31N 29°44' W 095°08'0 0.1
2015-Jan-24 13:33N 29°44' W 095°08'0 0.0
2015-Jan-23 16:29N 29°44' W 095°07'0 0.0
2015-Jan-23 15:32N 29°44' W 095°07'0 0.0
2015-Jan-23 14:23N 29°44' W 095°07'0 0.0
2015-Jan-23 08:17N 29°44' W 095°07'0 0.3
2015-Jan-23 07:33N 29°44' W 095°07'4 4.3
2015-Jan-23 06:33N 29°44' W 095°02'7 6.8
2015-Jan-23 05:33N 29°38' W 094°58'1111.1
2015-Jan-23 04:33N 29°29' W 094°51'18 1.1
2015-Jan-22 12:06N 29°13' W 094°41'0 0.0
2015-Jan-22 11:24N 29°13' W 094°41'0 0.0
2015-Jan-22 10:09N 29°13' W 094°41'0 0.0
2015-Jan-21 23:30N 29°13' W 094°41'  
Track history (hours):
 
Tides and Currents Weather Stations Pressure Air Temp Water Temp Dewpoint Dewpoint Depression Visibility Wind Speed Wind Dir Waves Ship Positions

Eagle Turin

Last reported at 2015-Jan-31 11:32 UTC. Time now 2015-Feb-01 04:07 UTC.
Position N 26°36' W 079°26'.

Length 246 m; draft 12.3 m.

Type: Tanker. MMSI: 565770000.

Date/timePositionNaut miles runAvg speedWind from/ knotsBaromVisibWave heightAir tempDewpointWater temp
2015-Jan-31 11:32N 26°36' W 079°26'1613.0
2015-Jan-31 10:18N 26°20' W 079°27'1013.2
2015-Jan-31 09:33N 26°10' W 079°29'1313.5
2015-Jan-31 08:33N 25°57' W 079°30'1413.7
2015-Jan-31 07:34N 25°43' W 079°32'  
2015-Jan-27 17:33N 29°27' W 094°51'8 8.2
2015-Jan-27 16:33N 29°34' W 094°55'8 7.8
2015-Jan-27 15:33N 29°41' W 094°59'6 6.0
2015-Jan-27 14:33N 29°45' W 095°04'3 3.2
2015-Jan-27 13:33N 29°44' W 095°08'0 0.0
2015-Jan-27 12:31N 29°44' W 095°08'0 0.0
2015-Jan-27 11:31N 29°44' W 095°08'0 0.0
2015-Jan-27 09:28N 29°44' W 095°08'0 0.0
2015-Jan-27 08:28N 29°44' W 095°08'0 0.0
2015-Jan-27 07:28N 29°44' W 095°08'0 0.0
2015-Jan-27 06:22N 29°44' W 095°08'0 0.0
2015-Jan-27 05:31N 29°44' W 095°08'0 0.0
2015-Jan-27 04:31N 29°44' W 095°08'0 0.0
2015-Jan-27 03:31N 29°44' W 095°08'0 0.0
2015-Jan-27 02:31N 29°44' W 095°08'0 0.0
2015-Jan-27 01:28N 29°44' W 095°08'0 0.0
2015-Jan-27 00:31N 29°44' W 095°08'0 0.0
2015-Jan-26 23:31N 29°44' W 095°08'0 0.0
2015-Jan-26 22:31N 29°44' W 095°08'0 0.0
2015-Jan-26 21:31N 29°44' W 095°08'0 0.0
2015-Jan-26 20:31N 29°44' W 095°08'0 0.0
2015-Jan-26 19:31N 29°44' W 095°08'0 0.0
2015-Jan-26 18:31N 29°44' W 095°08'0 0.0
2015-Jan-26 17:31N 29°44' W 095°08'0 0.0
2015-Jan-26 16:31N 29°44' W 095°08'0 0.0
2015-Jan-26 15:31N 29°44' W 095°08'0 0.0
2015-Jan-26 14:28N 29°44' W 095°08'0 0.0
2015-Jan-26 13:28N 29°44' W 095°08'0 0.0
2015-Jan-25 23:22N 29°44' W 095°08'0 0.0
2015-Jan-25 22:25N 29°44' W 095°08'0 0.0
2015-Jan-25 21:22N 29°44' W 095°08'0 0.0
2015-Jan-25 20:07N 29°44' W 095°08'0 0.0
2015-Jan-25 19:28N 29°44' W 095°08'0 0.0
2015-Jan-25 17:07N 29°44' W 095°08'0 0.0
2015-Jan-25 16:19N 29°44' W 095°08'0 0.0
2015-Jan-25 15:28N 29°44' W 095°08'0 0.0
2015-Jan-25 14:13N 29°44' W 095°08'0 0.0
2015-Jan-25 13:13N 29°44' W 095°08'0 0.0
2015-Jan-25 12:13N 29°44' W 095°08'0 0.0
2015-Jan-25 11:31N 29°44' W 095°08'0 0.0
2015-Jan-25 10:13N 29°44' W 095°08'0 0.0
2015-Jan-25 09:31N 29°44' W 095°08'0 0.0
2015-Jan-25 08:19N 29°44' W 095°08'0 0.0
2015-Jan-25 02:07N 29°44' W 095°08'0 0.0
2015-Jan-24 23:31N 29°44' W 095°08'0 0.0
2015-Jan-24 22:19N 29°44' W 095°08'0 0.0
2015-Jan-24 21:31N 29°44' W 095°08'0 0.0
2015-Jan-24 19:31N 29°44' W 095°08'0 0.0
2015-Jan-24 18:31N 29°44' W 095°08'0 0.0
2015-Jan-24 17:31N 29°44' W 095°08'0 0.0
2015-Jan-24 16:31N 29°44' W 095°08'0 0.0
2015-Jan-24 15:31N 29°44' W 095°08'0 0.0
2015-Jan-24 14:31N 29°44' W 095°08'0 0.1
2015-Jan-24 13:33N 29°44' W 095°08'0 0.0
2015-Jan-23 16:29N 29°44' W 095°07'0 0.0
2015-Jan-23 15:32N 29°44' W 095°07'0 0.0
2015-Jan-23 14:23N 29°44' W 095°07'0 0.0
2015-Jan-23 08:17N 29°44' W 095°07'0 0.3
2015-Jan-23 07:33N 29°44' W 095°07'4 4.3
2015-Jan-23 06:33N 29°44' W 095°02'7 6.8
2015-Jan-23 05:33N 29°38' W 094°58'1111.1
2015-Jan-23 04:33N 29°29' W 094°51'18 1.1
2015-Jan-22 12:06N 29°13' W 094°41'0 0.0
2015-Jan-22 11:24N 29°13' W 094°41'0 0.0
2015-Jan-22 10:09N 29°13' W 094°41'0 0.0
2015-Jan-21 23:30N 29°13' W 094°41'  

Dump ship's entire track history